Terminal Aerodrome Forecast
Issued by NWS

Home | Current Version | Previous Version | Text Only | Print | Product List | Glossary On
Versions: 1 2 3 4 5 6 7 8 9 10 11 12 13 14 15
898
FTUS43 KDLH 121523 AAA
TAFBRD
TAF AMD
KBRD 121523Z 1215/1312 33018G24KT P6SM SCT020
     FM130000 32010KT P6SM SKC
     FM130900 32004KT P6SM SKC=

USA.gov is the U.S. government's official web portal to all federal, state and local government web resources and services.